De Beque, CO

2:46 AM MST on February 12, 2016 (GMT -0700)
MesoWest | | Change Station
CLOSE
Current Station
Personal Weather Station
Location: De Beque, CO
Elevation: 4961 ft
Nearby Weather Stations

Elev 4961 ft 39.30 °N, 108.25 °W | Updated 5 hours ago

Clear
Clear
26.0 °F
Feels Like 26.0 °F
N
0.0
Wind Variable Wind from North
Gusts 0.0 mph

Today
High -- | Low -- °F
--% Chance of Precip.
Yesterday
High -- | Low -- °F
Precip. -- in
Pressure 30.45 in
Visibility 10.0 miles
Clouds Clear
Dew Point Not available.
Humidity Not available.
Rainfall in
Snow Depth Not available.
7:08 AM 5:46 PM
Waxing Crescent, 19% visible
METAR KGJT 120853Z AUTO 07004KT 10SM CLR M03/M05 A3041 RMK AO2 SLP311 T10281050 56000 TSNO
Pressure 30.45 in
Visibility 10.0 miles
Clouds Clear
Dew Point Not available.
Humidity Not available.
Rainfall in
Snow Depth Not available.
7:08 AM 5:46 PM
Waxing Crescent, 19% visible
METAR KGJT 120853Z AUTO 07004KT 10SM CLR M03/M05 A3041 RMK AO2 SLP311 T10281050 56000 TSNO

10-Day Weather Forecast

Almanac

Astronomy

Feb. 12, 2016 Rise Set
Actual Time
Civil Twilight
Nautical Twilight
Astronomical Twilight
Moon
Length of Visible Light
Length of Day
Tomorrow will be .
, % of the Moon is Illuminated

Today's Extremes

State Highs State Lows

Community

WunderPhotos

Upload Photos

1,892,286 photos uploaded!

WunderBlog® & News

Nearby

Air Quality

  Air Quality AQ Index Pollutant
Not available.

Snow Depth

Station Depth Elevation

Earthquake Activity

City Distance Mag. Time & Date
Minimum magnitude displayed is 2.5.

Coastal Water Temperatures

Place Temperature

Stations

Nearby Weather Stations

Station Location Temp. Windchill Dew Point Humidity Wind Precip. Elev Updated Type
                   

Watches & Warnings

There are currently no watches in effect.